sensor_id;sensor_type;location;lat;lon;timestamp;temperature;humidity
43949;DHT22;29429;51.074;13.764;2022-10-19T00:01:37;11.60;99.90
43949;DHT22;29429;51.074;13.764;2022-10-19T00:04:04;11.60;99.90
43949;DHT22;29429;51.074;13.764;2022-10-19T00:06:34;11.60;99.90
43949;DHT22;29429;51.074;13.764;2022-10-19T00:09:10;11.50;99.90
43949;DHT22;29429;51.074;13.764;2022-10-19T00:11:40;11.50;99.90
43949;DHT22;29429;51.074;13.764;2022-10-19T00:14:11;11.40;99.90
43949;DHT22;29429;51.074;13.764;2022-10-19T00:16:44;11.30;99.90
43949;DHT22;29429;51.074;13.764;2022-10-19T00:19:14;11.40;99.90
43949;DHT22;29429;51.074;13.764;2022-10-19T00:21:43;11.30;99.90
43949;DHT22;29429;51.074;13.764;2022-10-19T00:24:10;11.20;99.90
43949;DHT22;29429;51.074;13.764;2022-10-19T00:26:37;11.20;99.90
43949;DHT22;29429;51.074;13.764;2022-10-19T00:29:04;11.20;99.90
43949;DHT22;29429;51.074;13.764;2022-10-19T00:31:32;11.20;99.90
43949;DHT22;29429;51.074;13.764;2022-10-19T00:33:59;11.20;99.90
43949;DHT22;29429;51.074;13.764;2022-10-19T00:36:27;11.20;99.90
43949;DHT22;29429;51.074;13.764;2022-10-19T00:38:59;11.10;99.90
43949;DHT22;29429;51.074;13.764;2022-10-19T00:41:28;11.10;99.90
43949;DHT22;29429;51.074;13.764;2022-10-19T00:44:01;11.10;99.90
43949;DHT22;29429;51.074;13.764;2022-10-19T00:46:31;11.10;99.90
43949;DHT22;29429;51.074;13.764;2022-10-19T00:49:01;11.10;99.90
43949;DHT22;29429;51.074;13.764;2022-10-19T00:51:36;11.00;99.90
43949;DHT22;29429;51.074;13.764;2022-10-19T00:54:06;11.00;99.90
43949;DHT22;29429;51.074;13.764;2022-10-19T00:56:34;11.00;99.90
43949;DHT22;29429;51.074;13.764;2022-10-19T00:59:05;11.00;99.90
43949;DHT22;29429;51.074;13.764;2022-10-19T01:01:33;11.00;99.90
43949;DHT22;29429;51.074;13.764;2022-10-19T01:04:00;11.20;99.90
43949;DHT22;29429;51.074;13.764;2022-10-19T01:06:28;11.10;99.90
43949;DHT22;29429;51.074;13.764;2022-10-19T01:08:55;11.00;99.90
43949;DHT22;29429;51.074;13.764;2022-10-19T01:11:25;11.00;99.90
43949;DHT22;29429;51.074;13.764;2022-10-19T01:17:06;10.90;99.90
43949;DHT22;29429;51.074;13.764;2022-10-19T01:22:45;10.90;99.90
43949;DHT22;29429;51.074;13.764;2022-10-19T01:30:53;10.70;99.90
43949;DHT22;29429;51.074;13.764;2022-10-19T01:33:30;10.70;99.90
43949;DHT22;29429;51.074;13.764;2022-10-19T01:38:50;10.60;99.90
43949;DHT22;29429;51.074;13.764;2022-10-19T01:44:30;10.40;99.90
43949;DHT22;29429;51.074;13.764;2022-10-19T01:47:09;10.30;99.90
43949;DHT22;29429;51.074;13.764;2022-10-19T01:49:41;10.30;99.90
43949;DHT22;29429;51.074;13.764;2022-10-19T01:52:13;10.20;99.90
43949;DHT22;29429;51.074;13.764;2022-10-19T01:54:44;10.30;99.90
43949;DHT22;29429;51.074;13.764;2022-10-19T01:57:16;10.30;99.90
43949;DHT22;29429;51.074;13.764;2022-10-19T01:59:48;10.20;99.90
43949;DHT22;29429;51.074;13.764;2022-10-19T02:02:16;10.30;99.90
43949;DHT22;29429;51.074;13.764;2022-10-19T02:04:45;10.30;99.90
43949;DHT22;29429;51.074;13.764;2022-10-19T02:07:14;10.40;99.90
43949;DHT22;29429;51.074;13.764;2022-10-19T02:09:42;10.60;99.90
43949;DHT22;29429;51.074;13.764;2022-10-19T02:12:09;10.50;99.90
43949;DHT22;29429;51.074;13.764;2022-10-19T02:14:39;10.60;99.90
43949;DHT22;29429;51.074;13.764;2022-10-19T02:17:14;10.50;99.90
43949;DHT22;29429;51.074;13.764;2022-10-19T02:19:43;10.40;99.90
43949;DHT22;29429;51.074;13.764;2022-10-19T02:22:10;10.30;99.90
43949;DHT22;29429;51.074;13.764;2022-10-19T02:24:38;10.20;99.90
43949;DHT22;29429;51.074;13.764;2022-10-19T02:27:05;10.20;99.90
43949;DHT22;29429;51.074;13.764;2022-10-19T02:29:34;10.10;99.90
43949;DHT22;29429;51.074;13.764;2022-10-19T02:32:03;10.10;99.90
43949;DHT22;29429;51.074;13.764;2022-10-19T02:34:30;10.10;99.90
43949;DHT22;29429;51.074;13.764;2022-10-19T02:36:58;10.20;99.90
43949;DHT22;29429;51.074;13.764;2022-10-19T02:39:24;10.30;99.90
43949;DHT22;29429;51.074;13.764;2022-10-19T02:41:56;10.30;99.90
43949;DHT22;29429;51.074;13.764;2022-10-19T02:44:30;10.40;99.90
43949;DHT22;29429;51.074;13.764;2022-10-19T02:47:09;10.40;99.90
43949;DHT22;29429;51.074;13.764;2022-10-19T02:49:38;10.40;99.90
43949;DHT22;29429;51.074;13.764;2022-10-19T02:52:08;10.40;99.90
43949;DHT22;29429;51.074;13.764;2022-10-19T02:54:36;10.40;99.90
43949;DHT22;29429;51.074;13.764;2022-10-19T02:57:15;10.40;99.90
43949;DHT22;29429;51.074;13.764;2022-10-19T02:59:42;10.40;99.90
43949;DHT22;29429;51.074;13.764;2022-10-19T03:02:09;10.40;99.90
43949;DHT22;29429;51.074;13.764;2022-10-19T03:04:37;10.40;99.90
43949;DHT22;29429;51.074;13.764;2022-10-19T03:07:04;10.40;99.90
43949;DHT22;29429;51.074;13.764;2022-10-19T03:09:31;10.40;99.90
43949;DHT22;29429;51.074;13.764;2022-10-19T03:11:57;10.40;99.90
43949;DHT22;29429;51.074;13.764;2022-10-19T03:14:25;10.40;99.90
43949;DHT22;29429;51.074;13.764;2022-10-19T03:16:51;10.40;99.90
43949;DHT22;29429;51.074;13.764;2022-10-19T03:19:18;10.60;99.90
43949;DHT22;29429;51.074;13.764;2022-10-19T03:21:45;10.50;99.90
43949;DHT22;29429;51.074;13.764;2022-10-19T03:24:12;10.50;99.90
43949;DHT22;29429;51.074;13.764;2022-10-19T03:26:39;10.50;99.90
43949;DHT22;29429;51.074;13.764;2022-10-19T03:29:06;10.50;99.90
43949;DHT22;29429;51.074;13.764;2022-10-19T03:31:33;10.40;99.90
43949;DHT22;29429;51.074;13.764;2022-10-19T03:34:00;10.40;99.90
43949;DHT22;29429;51.074;13.764;2022-10-19T03:36:28;10.30;99.90
43949;DHT22;29429;51.074;13.764;2022-10-19T03:38:58;10.20;99.90
43949;DHT22;29429;51.074;13.764;2022-10-19T03:41:28;10.30;99.90
43949;DHT22;29429;51.074;13.764;2022-10-19T03:43:56;10.30;99.90
43949;DHT22;29429;51.074;13.764;2022-10-19T03:46:23;10.30;99.90
43949;DHT22;29429;51.074;13.764;2022-10-19T03:48:50;10.30;99.90
43949;DHT22;29429;51.074;13.764;2022-10-19T03:51:19;10.30;99.90
43949;DHT22;29429;51.074;13.764;2022-10-19T03:53:50;10.30;99.90
43949;DHT22;29429;51.074;13.764;2022-10-19T03:56:19;10.40;99.90
43949;DHT22;29429;51.074;13.764;2022-10-19T03:58:49;10.40;99.90
43949;DHT22;29429;51.074;13.764;2022-10-19T04:01:18;10.50;99.90
43949;DHT22;29429;51.074;13.764;2022-10-19T04:03:52;10.50;99.90
43949;DHT22;29429;51.074;13.764;2022-10-19T04:06:21;10.50;99.90
43949;DHT22;29429;51.074;13.764;2022-10-19T04:08:51;10.50;99.90
43949;DHT22;29429;51.074;13.764;2022-10-19T04:11:19;10.50;99.90
43949;DHT22;29429;51.074;13.764;2022-10-19T04:13:48;10.50;99.90
43949;DHT22;29429;51.074;13.764;2022-10-19T04:16:18;10.40;99.90
43949;DHT22;29429;51.074;13.764;2022-10-19T04:18:46;10.40;99.90
43949;DHT22;29429;51.074;13.764;2022-10-19T04:21:23;10.20;99.90
43949;DHT22;29429;51.074;13.764;2022-10-19T04:23:51;10.40;99.90
43949;DHT22;29429;51.074;13.764;2022-10-19T04:26:19;10.40;99.90
43949;DHT22;29429;51.074;13.764;2022-10-19T04:28:46;10.40;99.90
43949;DHT22;29429;51.074;13.764;2022-10-19T04:31:13;10.40;99.90
43949;DHT22;29429;51.074;13.764;2022-10-19T04:33:40;10.40;99.90
43949;DHT22;29429;51.074;13.764;2022-10-19T04:36:08;10.40;99.90
43949;DHT22;29429;51.074;13.764;2022-10-19T04:38:36;10.40;99.90
43949;DHT22;29429;51.074;13.764;2022-10-19T04:41:08;10.20;99.90
43949;DHT22;29429;51.074;13.764;2022-10-19T04:43:37;10.40;99.90
43949;DHT22;29429;51.074;13.764;2022-10-19T04:46:05;10.50;99.90
43949;DHT22;29429;51.074;13.764;2022-10-19T04:48:37;10.30;99.90
43949;DHT22;29429;51.074;13.764;2022-10-19T04:51:04;10.30;99.90
43949;DHT22;29429;51.074;13.764;2022-10-19T04:53:32;10.30;99.90
43949;DHT22;29429;51.074;13.764;2022-10-19T04:56:02;10.20;99.90
43949;DHT22;29429;51.074;13.764;2022-10-19T04:58:30;10.20;99.90
43949;DHT22;29429;51.074;13.764;2022-10-19T05:00:57;10.30;99.90
43949;DHT22;29429;51.074;13.764;2022-10-19T05:03:24;10.30;99.90
43949;DHT22;29429;51.074;13.764;2022-10-19T05:05:51;10.30;99.90
43949;DHT22;29429;51.074;13.764;2022-10-19T05:08:18;10.40;99.90
43949;DHT22;29429;51.074;13.764;2022-10-19T05:10:45;10.40;99.90
43949;DHT22;29429;51.074;13.764;2022-10-19T05:13:13;10.40;99.90
43949;DHT22;29429;51.074;13.764;2022-10-19T05:15:40;10.40;99.90
43949;DHT22;29429;51.074;13.764;2022-10-19T05:18:07;10.40;99.90
43949;DHT22;29429;51.074;13.764;2022-10-19T05:20:34;10.40;99.90
43949;DHT22;29429;51.074;13.764;2022-10-19T05:23:00;10.30;99.90
43949;DHT22;29429;51.074;13.764;2022-10-19T05:25:31;10.30;99.90
43949;DHT22;29429;51.074;13.764;2022-10-19T05:27:58;10.30;99.90
43949;DHT22;29429;51.074;13.764;2022-10-19T05:30:25;10.40;99.90
43949;DHT22;29429;51.074;13.764;2022-10-19T05:32:52;10.30;99.90
43949;DHT22;29429;51.074;13.764;2022-10-19T05:35:19;10.40;99.90
43949;DHT22;29429;51.074;13.764;2022-10-19T05:37:50;10.30;99.90
43949;DHT22;29429;51.074;13.764;2022-10-19T05:40:19;10.40;99.90
43949;DHT22;29429;51.074;13.764;2022-10-19T05:42:46;10.30;99.90
43949;DHT22;29429;51.074;13.764;2022-10-19T05:45:13;10.30;99.90
43949;DHT22;29429;51.074;13.764;2022-10-19T05:47:40;10.30;99.90
43949;DHT22;29429;51.074;13.764;2022-10-19T05:50:07;10.30;99.90
43949;DHT22;29429;51.074;13.764;2022-10-19T05:52:34;10.30;99.90
43949;DHT22;29429;51.074;13.764;2022-10-19T05:55:00;10.30;99.90
43949;DHT22;29429;51.074;13.764;2022-10-19T05:57:27;10.40;99.90
43949;DHT22;29429;51.074;13.764;2022-10-19T05:59:58;10.40;99.90
43949;DHT22;29429;51.074;13.764;2022-10-19T06:02:25;10.40;99.90
43949;DHT22;29429;51.074;13.764;2022-10-19T06:04:52;10.50;99.90
43949;DHT22;29429;51.074;13.764;2022-10-19T06:07:19;10.50;99.90
43949;DHT22;29429;51.074;13.764;2022-10-19T06:09:46;10.50;99.90
43949;DHT22;29429;51.074;13.764;2022-10-19T06:12:13;10.60;99.90
43949;DHT22;29429;51.074;13.764;2022-10-19T06:14:41;10.60;99.90
43949;DHT22;29429;51.074;13.764;2022-10-19T06:17:08;10.60;99.90
43949;DHT22;29429;51.074;13.764;2022-10-19T06:19:36;10.60;99.90
43949;DHT22;29429;51.074;13.764;2022-10-19T06:22:03;10.60;99.90
43949;DHT22;29429;51.074;13.764;2022-10-19T06:24:30;10.60;99.90
43949;DHT22;29429;51.074;13.764;2022-10-19T06:26:57;10.60;99.90
43949;DHT22;29429;51.074;13.764;2022-10-19T06:29:24;10.60;99.90
43949;DHT22;29429;51.074;13.764;2022-10-19T06:31:51;10.60;99.90
43949;DHT22;29429;51.074;13.764;2022-10-19T06:34:19;10.70;99.90
43949;DHT22;29429;51.074;13.764;2022-10-19T06:36:46;10.70;99.90
43949;DHT22;29429;51.074;13.764;2022-10-19T06:39:13;10.70;99.90
43949;DHT22;29429;51.074;13.764;2022-10-19T06:41:40;10.80;99.90
43949;DHT22;29429;51.074;13.764;2022-10-19T06:44:16;10.80;99.90
43949;DHT22;29429;51.074;13.764;2022-10-19T06:46:43;10.90;99.90
43949;DHT22;29429;51.074;13.764;2022-10-19T06:49:11;11.00;99.90
43949;DHT22;29429;51.074;13.764;2022-10-19T06:51:38;11.00;99.90
43949;DHT22;29429;51.074;13.764;2022-10-19T06:54:06;10.90;99.90
43949;DHT22;29429;51.074;13.764;2022-10-19T06:56:33;11.10;99.90
43949;DHT22;29429;51.074;13.764;2022-10-19T06:59:00;11.10;99.90
43949;DHT22;29429;51.074;13.764;2022-10-19T07:01:27;11.10;99.90
43949;DHT22;29429;51.074;13.764;2022-10-19T07:03:54;11.40;99.90
43949;DHT22;29429;51.074;13.764;2022-10-19T07:06:21;11.30;99.90
43949;DHT22;29429;51.074;13.764;2022-10-19T07:08:49;11.40;99.90
43949;DHT22;29429;51.074;13.764;2022-10-19T07:11:17;11.50;99.90
43949;DHT22;29429;51.074;13.764;2022-10-19T07:13:46;11.60;99.90
43949;DHT22;29429;51.074;13.764;2022-10-19T07:16:13;11.50;99.90
43949;DHT22;29429;51.074;13.764;2022-10-19T07:18:46;11.60;99.90
43949;DHT22;29429;51.074;13.764;2022-10-19T07:21:14;11.70;99.90
43949;DHT22;29429;51.074;13.764;2022-10-19T07:23:43;11.70;99.90
43949;DHT22;29429;51.074;13.764;2022-10-19T07:26:12;11.90;99.90
43949;DHT22;29429;51.074;13.764;2022-10-19T07:28:41;11.80;99.90
43949;DHT22;29429;51.074;13.764;2022-10-19T07:31:11;11.90;99.90
43949;DHT22;29429;51.074;13.764;2022-10-19T07:33:40;11.90;99.90
43949;DHT22;29429;51.074;13.764;2022-10-19T07:36:07;11.90;99.90
43949;DHT22;29429;51.074;13.764;2022-10-19T07:38:36;11.90;99.90
43949;DHT22;29429;51.074;13.764;2022-10-19T07:41:04;11.90;99.90
43949;DHT22;29429;51.074;13.764;2022-10-19T07:43:33;11.90;99.90
43949;DHT22;29429;51.074;13.764;2022-10-19T07:46:01;11.90;99.90
43949;DHT22;29429;51.074;13.764;2022-10-19T07:48:30;11.80;99.90
43949;DHT22;29429;51.074;13.764;2022-10-19T07:50:58;11.80;99.90
43949;DHT22;29429;51.074;13.764;2022-10-19T07:53:26;11.80;99.90
43949;DHT22;29429;51.074;13.764;2022-10-19T07:55:53;11.70;99.90
43949;DHT22;29429;51.074;13.764;2022-10-19T07:58:21;11.70;99.90
43949;DHT22;29429;51.074;13.764;2022-10-19T08:00:48;11.70;99.90
43949;DHT22;29429;51.074;13.764;2022-10-19T08:03:14;11.70;99.90
43949;DHT22;29429;51.074;13.764;2022-10-19T08:06:06;11.80;99.90
43949;DHT22;29429;51.074;13.764;2022-10-19T08:08:35;11.80;99.90
43949;DHT22;29429;51.074;13.764;2022-10-19T08:11:13;11.90;99.90
43949;DHT22;29429;51.074;13.764;2022-10-19T08:13:44;11.90;99.90
43949;DHT22;29429;51.074;13.764;2022-10-19T08:18:56;12.00;99.90
43949;DHT22;29429;51.074;13.764;2022-10-19T08:21:25;11.90;99.90
43949;DHT22;29429;51.074;13.764;2022-10-19T08:23:53;12.00;99.90
43949;DHT22;29429;51.074;13.764;2022-10-19T08:26:20;12.10;99.90
43949;DHT22;29429;51.074;13.764;2022-10-19T08:28:47;12.20;99.90
43949;DHT22;29429;51.074;13.764;2022-10-19T08:31:16;12.10;99.90
43949;DHT22;29429;51.074;13.764;2022-10-19T08:33:45;12.20;99.90
43949;DHT22;29429;51.074;13.764;2022-10-19T08:36:15;12.20;99.90
43949;DHT22;29429;51.074;13.764;2022-10-19T08:38:42;12.30;99.90
43949;DHT22;29429;51.074;13.764;2022-10-19T08:41:28;12.30;99.90
43949;DHT22;29429;51.074;13.764;2022-10-19T08:47:06;12.40;99.90
43949;DHT22;29429;51.074;13.764;2022-10-19T08:49:49;12.50;99.90
43949;DHT22;29429;51.074;13.764;2022-10-19T08:52:50;12.50;99.90
43949;DHT22;29429;51.074;13.764;2022-10-19T08:55:12;12.70;99.90
43949;DHT22;29429;51.074;13.764;2022-10-19T08:57:51;12.80;99.90
43949;DHT22;29429;51.074;13.764;2022-10-19T09:00:43;12.90;99.90
43949;DHT22;29429;51.074;13.764;2022-10-19T09:03:41;12.90;99.90
43949;DHT22;29429;51.074;13.764;2022-10-19T09:06:26;12.90;99.90
43949;DHT22;29429;51.074;13.764;2022-10-19T09:08:57;13.00;99.90
43949;DHT22;29429;51.074;13.764;2022-10-19T09:11:26;13.20;99.90
43949;DHT22;29429;51.074;13.764;2022-10-19T09:14:06;13.20;99.90
43949;DHT22;29429;51.074;13.764;2022-10-19T09:16:38;13.30;99.90
43949;DHT22;29429;51.074;13.764;2022-10-19T09:19:11;13.30;99.90
43949;DHT22;29429;51.074;13.764;2022-10-19T09:21:47;13.30;99.90
43949;DHT22;29429;51.074;13.764;2022-10-19T09:26:51;13.10;99.90
43949;DHT22;29429;51.074;13.764;2022-10-19T09:31:54;13.20;99.90
43949;DHT22;29429;51.074;13.764;2022-10-19T09:34:25;13.20;99.90
43949;DHT22;29429;51.074;13.764;2022-10-19T09:36:58;13.20;99.90
43949;DHT22;29429;51.074;13.764;2022-10-19T09:39:26;13.30;99.90
43949;DHT22;29429;51.074;13.764;2022-10-19T09:41:56;13.20;99.90
43949;DHT22;29429;51.074;13.764;2022-10-19T09:44:41;13.20;99.90
43949;DHT22;29429;51.074;13.764;2022-10-19T09:47:27;13.40;99.90
43949;DHT22;29429;51.074;13.764;2022-10-19T09:52:56;13.70;99.90
43949;DHT22;29429;51.074;13.764;2022-10-19T09:58:23;13.50;99.90
43949;DHT22;29429;51.074;13.764;2022-10-19T10:00:46;13.50;99.90
43949;DHT22;29429;51.074;13.764;2022-10-19T10:03:24;13.50;99.90
43949;DHT22;29429;51.074;13.764;2022-10-19T10:06:05;13.50;99.90
43949;DHT22;29429;51.074;13.764;2022-10-19T10:08:46;13.40;99.90
43949;DHT22;29429;51.074;13.764;2022-10-19T10:11:27;13.50;99.90
43949;DHT22;29429;51.074;13.764;2022-10-19T10:14:12;13.50;99.90
43949;DHT22;29429;51.074;13.764;2022-10-19T10:16:45;13.40;99.90
43949;DHT22;29429;51.074;13.764;2022-10-19T10:19:32;13.50;99.90
43949;DHT22;29429;51.074;13.764;2022-10-19T10:22:02;13.50;99.90
43949;DHT22;29429;51.074;13.764;2022-10-19T10:24:30;13.50;99.90
43949;DHT22;29429;51.074;13.764;2022-10-19T10:26:59;13.60;99.90
43949;DHT22;29429;51.074;13.764;2022-10-19T10:29:29;13.60;99.90
43949;DHT22;29429;51.074;13.764;2022-10-19T10:32:06;13.60;99.90
43949;DHT22;29429;51.074;13.764;2022-10-19T10:34:38;13.60;99.90
43949;DHT22;29429;51.074;13.764;2022-10-19T10:37:39;13.50;99.90
43949;DHT22;29429;51.074;13.764;2022-10-19T10:40:04;13.50;99.90
